createdAt,value
2017-11-11T00:00:24.617Z,10.35
2017-11-11T00:02:52.953Z,10.39
2017-11-11T00:05:22.011Z,10.44
2017-11-11T00:07:50.321Z,10.43
2017-11-11T00:10:18.641Z,10.44
2017-11-11T00:12:47.004Z,10.46
2017-11-11T00:15:16.088Z,10.48
2017-11-11T00:17:45.161Z,10.50
2017-11-11T00:20:13.456Z,10.47
2017-11-11T00:22:41.745Z,10.44
2017-11-11T00:25:10.255Z,10.41
2017-11-11T00:27:39.407Z,10.38
2017-11-11T00:30:07.756Z,10.39
2017-11-11T00:32:36.047Z,10.43
2017-11-11T00:35:04.351Z,10.45
2017-11-11T00:37:32.652Z,10.42
2017-11-11T00:40:00.960Z,10.37
2017-11-11T00:42:30.188Z,10.31
2017-11-11T00:44:58.477Z,10.25
2017-11-11T00:47:26.780Z,10.22
2017-11-11T00:49:55.073Z,10.20
2017-11-11T00:52:24.137Z,10.19
2017-11-11T00:54:52.509Z,10.18
2017-11-11T00:57:20.793Z,10.16
2017-11-11T00:59:49.080Z,10.17
2017-11-11T01:02:17.373Z,10.16
2017-11-11T01:04:45.676Z,10.06
2017-11-11T01:07:14.019Z,9.92
2017-11-11T01:09:42.306Z,9.81
2017-11-11T01:12:10.611Z,9.70
2017-11-11T01:14:39.046Z,9.61
2017-11-11T01:17:08.121Z,9.59
2017-11-11T01:19:36.406Z,9.58
2017-11-11T01:22:04.689Z,9.59
2017-11-11T01:24:33.831Z,9.58
2017-11-11T01:27:02.179Z,9.55
2017-11-11T01:29:31.236Z,9.56
2017-11-11T01:31:59.623Z,9.57
2017-11-11T01:34:27.908Z,9.59
2017-11-11T01:36:56.204Z,9.60
2017-11-11T01:39:24.506Z,9.59
2017-11-11T01:41:53.572Z,9.56
2017-11-11T01:44:21.879Z,9.52
2017-11-11T01:46:50.937Z,9.49
2017-11-11T01:49:19.221Z,9.48
2017-11-11T01:51:47.575Z,9.50
2017-11-11T01:54:15.871Z,9.48
2017-11-11T01:56:44.239Z,9.44
2017-11-11T01:59:12.552Z,9.40
2017-11-11T02:01:40.853Z,9.39
2017-11-11T02:04:09.155Z,9.35
2017-11-11T02:06:38.224Z,9.36
2017-11-11T02:09:06.512Z,9.38
2017-11-11T02:11:34.801Z,9.41
2017-11-11T02:14:03.109Z,9.45
2017-11-11T02:16:31.394Z,9.49
2017-11-11T02:18:59.685Z,9.51
2017-11-11T02:21:27.967Z,9.54
2017-11-11T02:23:56.352Z,9.58
2017-11-11T02:26:24.650Z,9.60
2017-11-11T02:28:52.959Z,9.63
2017-11-11T02:31:21.253Z,9.66
2017-11-11T02:33:49.554Z,9.68
2017-11-11T02:36:18.611Z,9.71
2017-11-11T02:38:47.665Z,9.73
2017-11-11T02:41:15.972Z,9.74
2017-11-11T02:43:44.265Z,9.75
2017-11-11T02:46:12.554Z,9.78
2017-11-11T02:48:40.849Z,9.81
2017-11-11T02:51:10.681Z,9.85
2017-11-11T02:53:39.733Z,9.88
2017-11-11T02:56:08.022Z,9.89
2017-11-11T02:58:36.312Z,9.92
2017-11-11T03:01:04.794Z,9.96
2017-11-11T03:03:33.098Z,9.97
2017-11-11T03:06:01.406Z,9.91
2017-11-11T03:08:29.712Z,9.84
2017-11-11T03:10:58.102Z,9.75
2017-11-11T03:13:26.383Z,9.66
2017-11-11T03:15:54.695Z,9.56
2017-11-11T03:18:23.058Z,9.49
2017-11-11T03:20:51.395Z,9.45
2017-11-11T03:23:20.474Z,9.44
2017-11-11T03:25:49.623Z,9.42
2017-11-11T03:28:17.928Z,9.41
2017-11-11T03:30:46.229Z,9.44
2017-11-11T03:33:16.096Z,9.44
2017-11-11T03:35:44.420Z,9.44
2017-11-11T03:38:12.720Z,9.43
2017-11-11T03:40:41.171Z,9.45
2017-11-11T03:43:09.456Z,9.47
2017-11-11T03:45:37.744Z,9.48
2017-11-11T03:48:06.038Z,9.50
2017-11-11T03:50:34.366Z,9.53
2017-11-11T03:53:02.674Z,9.59
2017-11-11T03:55:30.973Z,9.61
2017-11-11T03:57:59.340Z,9.63
2017-11-11T04:00:27.638Z,9.62
2017-11-11T04:02:55.940Z,9.67
2017-11-11T04:05:24.230Z,9.72
2017-11-11T04:07:53.292Z,9.78
2017-11-11T04:10:21.589Z,9.84
2017-11-11T04:12:50.640Z,9.89
2017-11-11T04:15:18.928Z,9.93
2017-11-11T04:17:47.220Z,9.97
2017-11-11T04:20:15.581Z,9.98
2017-11-11T04:22:43.876Z,9.99
2017-11-11T04:25:12.202Z,9.99
2017-11-11T04:27:40.514Z,10.01
2017-11-11T04:30:08.821Z,10.05
2017-11-11T04:32:37.230Z,10.10
2017-11-11T04:35:05.541Z,10.13
2017-11-11T04:37:34.624Z,10.16
2017-11-11T04:40:03.266Z,10.17
2017-11-11T04:42:31.568Z,10.17
2017-11-11T04:44:59.862Z,10.19
2017-11-11T04:47:28.157Z,10.21
2017-11-11T04:49:56.463Z,10.22
2017-11-11T04:52:26.265Z,10.24
2017-11-11T04:54:54.560Z,10.25
2017-11-11T04:57:23.686Z,10.27
2017-11-11T04:59:51.977Z,10.29
2017-11-11T05:02:20.280Z,10.31
2017-11-11T05:04:48.579Z,10.34
2017-11-11T05:07:16.889Z,10.35
2017-11-11T05:09:45.199Z,10.37
2017-11-11T05:12:13.500Z,10.39
2017-11-11T05:14:41.812Z,10.40
2017-11-11T05:17:10.240Z,10.38
2017-11-11T05:19:38.576Z,10.38
2017-11-11T05:22:06.881Z,10.36
2017-11-11T05:24:36.070Z,10.36
2017-11-11T05:27:05.138Z,10.36
2017-11-11T05:29:33.465Z,10.36
2017-11-11T05:32:01.790Z,10.37
2017-11-11T05:34:30.085Z,10.36
2017-11-11T05:36:58.392Z,10.36
2017-11-11T05:39:26.737Z,10.36
2017-11-11T05:41:55.127Z,10.35
2017-11-11T05:44:23.438Z,10.34
2017-11-11T05:46:51.754Z,10.34
2017-11-11T05:49:20.055Z,10.36
2017-11-11T05:51:48.349Z,10.42
2017-11-11T05:54:16.685Z,10.44
2017-11-11T05:56:45.829Z,10.48
2017-11-11T05:59:14.127Z,10.49
2017-11-11T06:01:42.445Z,10.51
2017-11-11T06:04:11.524Z,10.54
2017-11-11T06:06:40.592Z,10.61
2017-11-11T06:09:08.918Z,10.61
2017-11-11T06:11:38.056Z,10.60
2017-11-11T06:14:06.376Z,10.62
2017-11-11T06:16:35.460Z,10.61
2017-11-11T06:19:03.760Z,10.61
2017-11-11T06:21:32.098Z,10.62
2017-11-11T06:24:00.421Z,10.64
2017-11-11T06:26:28.754Z,10.67
2017-11-11T06:28:57.049Z,10.69
2017-11-11T06:31:25.357Z,10.72
2017-11-11T06:33:53.669Z,10.75
2017-11-11T06:36:22.786Z,10.79
2017-11-11T06:38:51.088Z,10.78
2017-11-11T06:41:19.408Z,10.76
2017-11-11T06:43:48.497Z,10.68
2017-11-11T06:46:16.804Z,10.57
2017-11-11T06:48:45.099Z,10.52
2017-11-11T06:51:14.186Z,10.48
2017-11-11T06:53:42.534Z,10.46
2017-11-11T06:56:10.845Z,10.47
2017-11-11T06:58:39.152Z,10.47
2017-11-11T07:01:08.293Z,10.49
2017-11-11T07:03:36.589Z,10.48
2017-11-11T07:06:04.890Z,10.50
2017-11-11T07:08:33.187Z,10.52
2017-11-11T07:11:02.338Z,10.54
2017-11-11T07:13:30.631Z,10.55
2017-11-11T07:15:59.007Z,10.56
2017-11-11T07:18:27.331Z,10.56
2017-11-11T07:20:56.418Z,10.55
2017-11-11T07:23:25.481Z,10.58
2017-11-11T07:25:53.794Z,10.63
2017-11-11T07:28:22.134Z,10.70
2017-11-11T07:30:50.431Z,10.76
2017-11-11T07:33:18.745Z,10.81
2017-11-11T07:35:47.845Z,10.85
2017-11-11T07:38:16.921Z,10.88
2017-11-11T07:40:45.219Z,10.88
2017-11-11T07:43:13.528Z,10.88
2017-11-11T07:45:42.596Z,10.91
2017-11-11T07:48:10.897Z,10.99
2017-11-11T07:50:39.957Z,11.07
2017-11-11T07:53:08.269Z,11.12
2017-11-11T07:55:36.571Z,11.19
2017-11-11T07:58:05.647Z,11.25
2017-11-11T08:00:33.939Z,11.30
2017-11-11T08:03:03.034Z,11.31
2017-11-11T08:05:32.093Z,11.35
2017-11-11T08:08:00.421Z,11.40
2017-11-11T08:10:29.499Z,11.50
2017-11-11T08:12:57.962Z,11.57
2017-11-11T08:15:26.247Z,11.60
2017-11-11T08:17:54.890Z,11.62
2017-11-11T08:20:23.198Z,11.58
2017-11-11T08:22:51.572Z,11.48
2017-11-11T08:25:19.863Z,11.41
2017-11-11T08:27:48.170Z,11.35
2017-11-11T08:30:16.490Z,11.33
2017-11-11T08:32:44.801Z,11.27
2017-11-11T08:35:13.174Z,11.21
2017-11-11T08:37:41.505Z,11.20
2017-11-11T08:40:09.806Z,11.20
2017-11-11T08:42:38.917Z,11.17
2017-11-11T08:45:08.029Z,11.07
2017-11-11T08:47:36.407Z,11.05
2017-11-11T08:50:05.311Z,11.06
2017-11-11T08:52:33.619Z,11.01
2017-11-11T08:55:01.953Z,10.96
2017-11-11T08:57:31.043Z,10.93
2017-11-11T09:00:00.111Z,10.96
2017-11-11T09:02:28.422Z,11.01
2017-11-11T09:04:57.587Z,11.05
2017-11-11T09:07:25.974Z,11.09
2017-11-11T09:09:55.056Z,11.15
2017-11-11T09:12:23.423Z,11.21
2017-11-11T09:14:51.731Z,11.27
2017-11-11T09:17:20.044Z,11.28
2017-11-11T09:19:48.341Z,11.31
2017-11-11T09:22:17.423Z,11.36
2017-11-11T09:24:45.731Z,11.36
2017-11-11T09:27:14.805Z,11.38
2017-11-11T09:29:43.104Z,11.40
2017-11-11T09:32:12.219Z,11.45
2017-11-11T09:34:40.512Z,11.52
2017-11-11T09:37:08.811Z,11.63
2017-11-11T09:39:37.135Z,11.73
2017-11-11T09:42:05.429Z,11.76
2017-11-11T09:44:34.524Z,11.77
2017-11-11T09:47:03.666Z,11.79
2017-11-11T09:49:31.980Z,11.83
2017-11-11T09:52:00.276Z,11.87
2017-11-11T09:54:28.576Z,11.93
2017-11-11T09:56:58.385Z,12.00
2017-11-11T09:59:27.493Z,12.03
2017-11-11T10:01:56.580Z,12.09
2017-11-11T10:04:25.743Z,12.22
2017-11-11T10:06:54.072Z,12.31
2017-11-11T10:09:23.161Z,12.35
2017-11-11T10:11:53.058Z,12.39
2017-11-11T10:14:21.370Z,12.36
2017-11-11T10:16:50.424Z,12.35
2017-11-11T10:19:18.727Z,12.33
2017-11-11T10:21:47.048Z,12.35
2017-11-11T10:24:15.380Z,12.37
2017-11-11T10:26:43.680Z,12.39
2017-11-11T10:29:12.897Z,12.45
2017-11-11T10:31:41.973Z,12.48
2017-11-11T10:34:10.264Z,12.43
2017-11-11T10:36:38.582Z,12.42
2017-11-11T10:39:07.444Z,12.42
2017-11-11T10:41:36.516Z,12.46
2017-11-11T10:44:04.821Z,12.45
2017-11-11T10:46:33.896Z,12.44
2017-11-11T10:49:02.266Z,12.41
2017-11-11T10:51:30.559Z,12.30
2017-11-11T10:53:58.882Z,12.24
2017-11-11T10:56:27.190Z,12.27
2017-11-11T10:58:55.552Z,12.33
2017-11-11T11:01:23.846Z,12.38
2017-11-11T11:03:52.236Z,12.46
2017-11-11T11:06:20.589Z,12.61
2017-11-11T11:08:49.673Z,12.85
2017-11-11T11:11:18.756Z,13.08
2017-11-11T11:13:47.066Z,13.17
2017-11-11T11:16:16.190Z,13.24
2017-11-11T11:18:44.480Z,13.32
2017-11-11T11:21:12.773Z,13.32
2017-11-11T11:26:08.662Z,13.33
2017-11-11T11:28:36.963Z,13.39
2017-11-11T11:31:05.270Z,13.41
2017-11-11T11:33:33.564Z,13.44
2017-11-11T11:36:01.885Z,13.44
2017-11-11T11:38:30.208Z,13.31
2017-11-11T11:40:58.518Z,13.09
2017-11-11T11:43:26.817Z,13.03
2017-11-11T11:45:55.114Z,12.95
2017-11-11T11:48:23.418Z,12.90
2017-11-11T11:50:51.734Z,12.88
2017-11-11T11:53:20.051Z,12.81
2017-11-11T11:55:48.411Z,12.68
2017-11-11T11:58:16.853Z,12.51
2017-11-11T12:00:45.169Z,12.41
2017-11-11T12:03:13.506Z,12.35
2017-11-11T12:05:42.595Z,12.33
2017-11-11T12:08:11.715Z,12.31
2017-11-11T12:10:40.014Z,12.24
2017-11-11T12:13:08.310Z,12.18
2017-11-11T12:15:37.692Z,12.12
2017-11-11T12:18:06.026Z,12.04
2017-11-11T12:20:34.562Z,11.99
2017-11-11T12:23:02.908Z,11.97
2017-11-11T12:25:31.204Z,11.97
2017-11-11T12:28:00.353Z,11.95
2017-11-11T12:30:28.671Z,11.96
2017-11-11T12:32:56.977Z,11.94
2017-11-11T12:35:25.294Z,11.96
2017-11-11T12:37:53.756Z,12.07
2017-11-11T12:40:22.063Z,12.26
2017-11-11T12:42:50.378Z,12.39
2017-11-11T12:45:19.438Z,12.50
2017-11-11T12:47:47.795Z,12.66
2017-11-11T12:50:16.081Z,12.75
2017-11-11T12:52:44.384Z,12.61
2017-11-11T12:55:12.717Z,12.41
2017-11-11T12:57:41.843Z,12.36
2017-11-11T13:00:10.142Z,12.32
2017-11-11T13:02:38.437Z,12.31
2017-11-11T13:05:06.793Z,12.27
2017-11-11T13:07:35.108Z,12.26
2017-11-11T13:10:03.430Z,12.31
2017-11-11T13:12:31.760Z,12.36
2017-11-11T13:15:00.146Z,12.47
2017-11-11T13:17:28.483Z,12.44
2017-11-11T13:19:56.806Z,12.38
2017-11-11T13:22:26.122Z,12.38
2017-11-11T13:24:54.492Z,12.42
2017-11-11T13:27:22.805Z,12.55
2017-11-11T13:29:51.108Z,12.58
2017-11-11T13:32:20.190Z,12.52
2017-11-11T13:34:48.498Z,12.46
2017-11-11T13:37:16.796Z,12.45
2017-11-11T13:39:45.101Z,12.47
2017-11-11T13:42:13.399Z,12.44
2017-11-11T13:44:41.711Z,12.45
2017-11-11T13:47:10.858Z,12.47
2017-11-11T13:49:39.165Z,12.44
2017-11-11T13:52:07.470Z,12.40
2017-11-11T13:54:36.540Z,12.37
2017-11-11T13:57:04.860Z,12.34
2017-11-11T13:59:33.968Z,12.31
2017-11-11T14:02:02.273Z,12.32
2017-11-11T14:04:30.648Z,12.29
2017-11-11T14:06:58.948Z,12.08
2017-11-11T14:09:27.331Z,11.78
2017-11-11T14:11:55.734Z,11.52
2017-11-11T14:14:24.068Z,11.36
2017-11-11T14:16:52.383Z,11.28
2017-11-11T14:19:20.693Z,11.21
2017-11-11T14:21:49.001Z,11.18
2017-11-11T14:24:18.080Z,11.25
2017-11-11T14:26:47.156Z,11.34
2017-11-11T14:29:15.477Z,11.42
2017-11-11T14:31:44.541Z,11.49
2017-11-11T14:34:12.899Z,11.49
2017-11-11T14:36:41.242Z,11.49
2017-11-11T14:39:10.313Z,11.44
2017-11-11T14:41:38.722Z,11.38
2017-11-11T14:44:07.796Z,11.35
2017-11-11T14:46:36.102Z,11.38
2017-11-11T14:49:05.170Z,11.35
2017-11-11T14:51:33.509Z,11.34
2017-11-11T14:54:02.031Z,11.34
2017-11-11T14:56:30.336Z,11.42
2017-11-11T14:58:58.813Z,11.44
2017-11-11T15:01:28.057Z,11.42
2017-11-11T15:03:56.365Z,11.43
2017-11-11T15:06:24.731Z,11.35
2017-11-11T15:08:53.053Z,11.27
2017-11-11T15:11:21.356Z,11.22
2017-11-11T15:13:49.652Z,11.19
2017-11-11T15:16:18.722Z,11.16
2017-11-11T15:18:47.026Z,11.10
2017-11-11T15:21:16.119Z,11.06
2017-11-11T15:23:45.182Z,11.02
2017-11-11T15:26:13.503Z,10.99
2017-11-11T15:28:42.593Z,10.97
2017-11-11T15:31:10.895Z,10.93
2017-11-11T15:33:40.047Z,10.91
2017-11-11T15:36:08.367Z,10.93
2017-11-11T15:38:37.457Z,10.85
2017-11-11T15:41:05.787Z,10.73
2017-11-11T15:43:34.080Z,10.60
2017-11-11T15:46:02.405Z,10.50
2017-11-11T15:48:31.484Z,10.43
2017-11-11T15:50:59.784Z,10.36
2017-11-11T15:53:28.086Z,10.31
2017-11-11T15:55:56.397Z,10.27
2017-11-11T15:58:24.693Z,10.23
2017-11-11T16:00:53.023Z,10.20
2017-11-11T16:03:22.095Z,10.19
2017-11-11T16:05:51.964Z,10.19
2017-11-11T16:08:20.275Z,10.18
2017-11-11T16:10:48.564Z,10.17
2017-11-11T16:13:16.876Z,10.18
2017-11-11T16:15:45.946Z,10.21
2017-11-11T16:18:14.248Z,10.25
2017-11-11T16:20:42.561Z,10.19
2017-11-11T16:23:10.879Z,10.07
2017-11-11T16:25:39.221Z,9.96
2017-11-11T16:28:07.531Z,9.86
2017-11-11T16:30:35.833Z,9.79
2017-11-11T16:33:04.996Z,9.75
2017-11-11T16:35:33.291Z,9.74
2017-11-11T16:38:01.614Z,9.76
2017-11-11T16:40:30.697Z,9.77
2017-11-11T16:42:59.299Z,9.79
2017-11-11T16:45:28.270Z,9.79
2017-11-11T16:47:56.569Z,9.79
2017-11-11T16:50:24.879Z,9.77
2017-11-11T16:52:53.940Z,9.75
2017-11-11T16:55:22.220Z,9.75
2017-11-11T16:57:51.242Z,9.73
2017-11-11T17:00:19.529Z,9.70
2017-11-11T17:02:48.620Z,9.67
2017-11-11T17:05:16.921Z,9.70
2017-11-11T17:07:45.993Z,9.74
2017-11-11T17:10:14.290Z,9.75
2017-11-11T17:12:42.648Z,9.73
2017-11-11T17:15:10.964Z,9.71
2017-11-11T17:17:40.041Z,9.70
2017-11-11T17:20:09.117Z,9.71
2017-11-11T17:22:37.424Z,9.70
2017-11-11T17:25:05.729Z,9.71
2017-11-11T17:27:34.173Z,9.73
2017-11-11T17:30:02.474Z,9.73
2017-11-11T17:32:31.555Z,9.73
2017-11-11T17:34:59.841Z,9.74
2017-11-11T17:37:28.176Z,9.75
2017-11-11T17:39:56.480Z,9.77
2017-11-11T17:42:24.800Z,9.79
2017-11-11T17:44:53.112Z,9.83
2017-11-11T17:47:21.421Z,9.85
2017-11-11T17:49:49.709Z,9.87
2017-11-11T17:52:17.992Z,9.88
2017-11-11T17:54:46.317Z,9.90
2017-11-11T17:57:15.378Z,9.88
2017-11-11T17:59:43.676Z,9.77
2017-11-11T18:02:11.977Z,9.71
2017-11-11T18:04:41.047Z,9.68
2017-11-11T18:07:09.346Z,9.66
2017-11-11T18:09:37.668Z,9.66
2017-11-11T18:12:05.962Z,9.63
2017-11-11T18:14:34.256Z,9.65
2017-11-11T18:17:02.544Z,9.73
2017-11-11T18:19:30.905Z,9.79
2017-11-11T18:21:59.213Z,9.86
2017-11-11T18:24:27.489Z,9.89
2017-11-11T18:26:56.544Z,9.92
2017-11-11T18:29:24.843Z,9.95
2017-11-11T18:31:53.132Z,9.96
2017-11-11T18:34:21.428Z,9.97
2017-11-11T18:36:49.718Z,9.97
2017-11-11T18:39:18.013Z,9.95
2017-11-11T18:41:46.343Z,9.94
2017-11-11T18:44:14.696Z,9.95
2017-11-11T18:46:43.766Z,9.96
2017-11-11T18:49:12.140Z,9.97
2017-11-11T18:51:40.446Z,9.95
2017-11-11T18:54:08.749Z,9.91
2017-11-11T18:56:37.804Z,9.92
2017-11-11T18:59:06.103Z,9.91
2017-11-11T19:01:35.897Z,9.91
2017-11-11T19:04:04.196Z,9.88
2017-11-11T19:06:32.497Z,9.86
2017-11-11T19:09:01.572Z,9.85
2017-11-11T19:11:29.872Z,9.84
2017-11-11T19:13:58.157Z,9.82
2017-11-11T19:16:27.221Z,9.80
2017-11-11T19:18:55.518Z,9.79
2017-11-11T19:21:23.819Z,9.78
2017-11-11T19:23:52.869Z,9.80
2017-11-11T19:26:21.180Z,9.83
2017-11-11T19:28:49.482Z,9.86
2017-11-11T19:31:18.530Z,9.91
2017-11-11T19:33:46.822Z,9.93
2017-11-11T19:36:15.120Z,9.89
2017-11-11T19:38:44.190Z,9.80
2017-11-11T19:41:12.482Z,9.72
2017-11-11T19:43:40.770Z,9.67
2017-11-11T19:46:09.073Z,9.61
2017-11-11T19:48:38.248Z,9.58
2017-11-11T19:51:06.553Z,9.59
2017-11-11T19:53:34.860Z,9.50
2017-11-11T19:56:04.082Z,9.42
2017-11-11T19:58:32.368Z,9.34
2017-11-11T20:01:00.688Z,9.25
2017-11-11T20:03:28.985Z,9.20
2017-11-11T20:05:57.286Z,9.13
2017-11-11T20:08:26.377Z,9.08
2017-11-11T20:10:55.429Z,9.07
2017-11-11T20:13:23.721Z,9.02
2017-11-11T20:15:52.069Z,9.03
2017-11-11T20:18:20.356Z,9.06
2017-11-11T20:20:48.661Z,9.07
2017-11-11T20:23:17.000Z,9.06
2017-11-11T20:25:45.298Z,9.00
2017-11-11T20:28:13.594Z,8.88
2017-11-11T20:30:41.876Z,8.77
2017-11-11T20:33:10.159Z,8.70
2017-11-11T20:35:38.455Z,8.62
2017-11-11T20:38:06.764Z,8.60
2017-11-11T20:40:35.047Z,8.59
2017-11-11T20:43:03.335Z,8.62
2017-11-11T20:45:32.386Z,8.60
2017-11-11T20:48:00.748Z,8.56
2017-11-11T20:50:29.043Z,8.53
2017-11-11T20:52:57.341Z,8.53
2017-11-11T20:55:25.664Z,8.56
2017-11-11T20:57:54.717Z,8.60
2017-11-11T21:00:23.053Z,8.64
2017-11-11T21:02:51.333Z,8.64
2017-11-11T21:05:19.638Z,8.66
2017-11-11T21:07:47.954Z,8.64
2017-11-11T21:10:16.229Z,8.62
2017-11-11T21:12:44.526Z,8.59
2017-11-11T21:15:12.815Z,8.58
2017-11-11T21:17:41.106Z,8.57
2017-11-11T21:20:10.157Z,8.55
2017-11-11T21:22:38.450Z,8.54
2017-11-11T21:25:06.766Z,8.53
2017-11-11T21:27:35.827Z,8.50
2017-11-11T21:30:04.129Z,8.45
2017-11-11T21:32:32.421Z,8.46
2017-11-11T21:35:00.727Z,8.51
2017-11-11T21:37:29.035Z,8.56
2017-11-11T21:39:57.340Z,8.64
2017-11-11T21:42:25.648Z,8.69
2017-11-11T21:44:53.958Z,8.75
2017-11-11T21:47:22.265Z,8.78
2017-11-11T21:49:51.454Z,8.84
2017-11-11T21:52:19.744Z,8.89
2017-11-11T21:54:48.035Z,8.92
2017-11-11T21:57:16.348Z,8.93
2017-11-11T21:59:45.432Z,8.94
2017-11-11T22:02:13.746Z,8.96
2017-11-11T22:04:42.055Z,8.99
2017-11-11T22:07:10.358Z,9.01
2017-11-11T22:09:38.649Z,9.04
2017-11-11T22:12:07.315Z,9.07
2017-11-11T22:14:35.617Z,9.11
2017-11-11T22:17:03.968Z,9.13
2017-11-11T22:19:32.270Z,9.14
2017-11-11T22:22:00.580Z,9.13
2017-11-11T22:24:28.918Z,9.13
2017-11-11T22:26:57.298Z,9.11
2017-11-11T22:29:25.602Z,9.11
2017-11-11T22:31:53.904Z,9.09
2017-11-11T22:34:22.204Z,9.06
2017-11-11T22:36:50.494Z,9.01
2017-11-11T22:39:19.557Z,8.95
2017-11-11T22:41:49.394Z,8.90
2017-11-11T22:44:17.690Z,8.90
2017-11-11T22:46:46.763Z,8.91
2017-11-11T22:49:15.052Z,8.89
2017-11-11T22:51:43.347Z,8.87
2017-11-11T22:54:12.406Z,8.87
2017-11-11T22:56:40.710Z,8.91
2017-11-11T22:59:09.017Z,9.00
2017-11-11T23:01:38.082Z,9.04
2017-11-11T23:04:06.384Z,8.96
2017-11-11T23:06:35.439Z,8.89
2017-11-11T23:09:03.754Z,8.87
2017-11-11T23:11:32.056Z,8.85
2017-11-11T23:14:01.130Z,8.80
2017-11-11T23:16:29.421Z,8.74
2017-11-11T23:18:57.744Z,8.73
2017-11-11T23:21:26.142Z,8.69
2017-11-11T23:23:54.434Z,8.62
2017-11-11T23:26:22.762Z,8.58
2017-11-11T23:28:51.071Z,8.56
2017-11-11T23:31:19.368Z,8.54
2017-11-11T23:33:48.325Z,8.51
2017-11-11T23:36:17.389Z,8.50
2017-11-11T23:38:45.674Z,8.53
2017-11-11T23:41:13.974Z,8.59
2017-11-11T23:43:43.040Z,8.64
2017-11-11T23:46:11.343Z,8.70
2017-11-11T23:48:39.629Z,8.74
2017-11-11T23:51:07.939Z,8.81
2017-11-11T23:53:36.223Z,8.87
2017-11-11T23:56:04.532Z,8.92
2017-11-11T23:58:32.823Z,8.92
